Lovettsville, Virginia
Current Conditions -  °F | °C
As of 5:55 PM on Tuesday 21 Oct 2014 (Local Time) from KJYO Reporting Station
Heavy Rain Heavy Rain  
Wind Chill: 55°   Ceiling: 5000
Heat Index: 55°   Visibility: 4mi
Dew Point: 55°   Wind: 7mph
Humidity: 100%   Direction: 320°NW
Pressure: 29.88"   Gusts: NA
Location:  39.27°N, 77.64°W
Report Text: KJYO 212155Z AUTO 32006KT 4SM +RA SCT035 SCT044 OVC050 13/13 A2988 RMK AO2 P0027
Loading
Personal Weather Stations






























Interactive Weather Map
Tropical Storm Tracking
New forecast layout! Learn more

10-Day Weather Forecast

Advertisements
Track Severe Weather on mobile